sensor_id;sensor_type;location;lat;lon;timestamp;temperature;humidity
42097;DHT22;27754;45.414;11.084;2024-03-17T00:01:38;14.30;87.60
42097;DHT22;27754;45.414;11.084;2024-03-17T00:04:07;14.20;87.60
42097;DHT22;27754;45.414;11.084;2024-03-17T00:06:33;14.10;87.80
42097;DHT22;27754;45.414;11.084;2024-03-17T00:08:59;14.00;87.90
42097;DHT22;27754;45.414;11.084;2024-03-17T00:11:26;13.90;88.00
42097;DHT22;27754;45.414;11.084;2024-03-17T00:13:52;13.90;88.10
42097;DHT22;27754;45.414;11.084;2024-03-17T00:16:18;13.80;88.30
42097;DHT22;27754;45.414;11.084;2024-03-17T00:18:46;13.80;88.40
42097;DHT22;27754;45.414;11.084;2024-03-17T00:21:12;13.70;88.50
42097;DHT22;27754;45.414;11.084;2024-03-17T00:23:39;13.70;88.50
42097;DHT22;27754;45.414;11.084;2024-03-17T00:26:05;13.60;88.40
42097;DHT22;27754;45.414;11.084;2024-03-17T00:28:31;13.50;88.20
42097;DHT22;27754;45.414;11.084;2024-03-17T00:30:57;13.50;88.40
42097;DHT22;27754;45.414;11.084;2024-03-17T00:33:23;13.50;88.30
42097;DHT22;27754;45.414;11.084;2024-03-17T00:35:50;13.50;88.30
42097;DHT22;27754;45.414;11.084;2024-03-17T00:38:16;13.40;88.30
42097;DHT22;27754;45.414;11.084;2024-03-17T00:40:42;13.40;88.30
42097;DHT22;27754;45.414;11.084;2024-03-17T00:43:11;13.40;88.50
42097;DHT22;27754;45.414;11.084;2024-03-17T00:45:39;13.40;88.70
42097;DHT22;27754;45.414;11.084;2024-03-17T00:48:06;13.30;88.80
42097;DHT22;27754;45.414;11.084;2024-03-17T00:50:32;13.30;88.80
42097;DHT22;27754;45.414;11.084;2024-03-17T00:52:58;13.20;89.00
42097;DHT22;27754;45.414;11.084;2024-03-17T00:55:24;13.00;89.10
42097;DHT22;27754;45.414;11.084;2024-03-17T00:57:50;13.00;89.00
42097;DHT22;27754;45.414;11.084;2024-03-17T01:00:16;12.90;88.70
42097;DHT22;27754;45.414;11.084;2024-03-17T01:02:43;12.80;87.70
42097;DHT22;27754;45.414;11.084;2024-03-17T01:05:09;12.70;87.40
42097;DHT22;27754;45.414;11.084;2024-03-17T01:07:35;12.70;87.30
42097;DHT22;27754;45.414;11.084;2024-03-17T01:10:01;12.60;87.40
42097;DHT22;27754;45.414;11.084;2024-03-17T01:12:27;12.60;87.20
42097;DHT22;27754;45.414;11.084;2024-03-17T01:14:53;12.60;87.00
42097;DHT22;27754;45.414;11.084;2024-03-17T01:17:19;12.70;86.00
42097;DHT22;27754;45.414;11.084;2024-03-17T01:19:45;12.60;85.90
42097;DHT22;27754;45.414;11.084;2024-03-17T01:22:11;12.70;85.40
42097;DHT22;27754;45.414;11.084;2024-03-17T01:24:37;12.70;85.10
42097;DHT22;27754;45.414;11.084;2024-03-17T01:27:07;12.60;84.90
42097;DHT22;27754;45.414;11.084;2024-03-17T01:29:33;12.60;84.60
42097;DHT22;27754;45.414;11.084;2024-03-17T01:31:59;12.60;84.50
42097;DHT22;27754;45.414;11.084;2024-03-17T01:34:25;12.60;84.60
42097;DHT22;27754;45.414;11.084;2024-03-17T01:36:51;12.60;84.70
42097;DHT22;27754;45.414;11.084;2024-03-17T01:39:17;12.60;84.40
42097;DHT22;27754;45.414;11.084;2024-03-17T01:41:44;12.70;84.30
42097;DHT22;27754;45.414;11.084;2024-03-17T01:44:28;12.70;84.20
42097;DHT22;27754;45.414;11.084;2024-03-17T01:46:56;12.70;84.10
42097;DHT22;27754;45.414;11.084;2024-03-17T01:49:22;12.70;84.20
42097;DHT22;27754;45.414;11.084;2024-03-17T01:51:50;12.60;84.30
42097;DHT22;27754;45.414;11.084;2024-03-17T01:54:16;12.50;84.70
42097;DHT22;27754;45.414;11.084;2024-03-17T01:56:42;12.50;84.80
42097;DHT22;27754;45.414;11.084;2024-03-17T01:59:09;12.50;85.10
42097;DHT22;27754;45.414;11.084;2024-03-17T02:01:38;12.40;85.30
42097;DHT22;27754;45.414;11.084;2024-03-17T02:04:05;12.40;85.60
42097;DHT22;27754;45.414;11.084;2024-03-17T02:06:31;12.40;85.80
42097;DHT22;27754;45.414;11.084;2024-03-17T02:08:57;12.30;86.30
42097;DHT22;27754;45.414;11.084;2024-03-17T02:11:33;12.30;86.40
42097;DHT22;27754;45.414;11.084;2024-03-17T02:14:00;12.30;86.60
42097;DHT22;27754;45.414;11.084;2024-03-17T02:16:29;12.30;87.50
42097;DHT22;27754;45.414;11.084;2024-03-17T02:18:56;12.20;87.70
42097;DHT22;27754;45.414;11.084;2024-03-17T02:21:23;12.20;87.70
42097;DHT22;27754;45.414;11.084;2024-03-17T02:23:51;12.20;88.30
42097;DHT22;27754;45.414;11.084;2024-03-17T02:26:17;12.20;88.40
42097;DHT22;27754;45.414;11.084;2024-03-17T02:28:45;12.20;88.60
42097;DHT22;27754;45.414;11.084;2024-03-17T02:31:13;12.20;88.90
42097;DHT22;27754;45.414;11.084;2024-03-17T02:33:39;12.20;88.90
42097;DHT22;27754;45.414;11.084;2024-03-17T02:36:06;12.10;89.30
42097;DHT22;27754;45.414;11.084;2024-03-17T02:38:36;12.10;89.40
42097;DHT22;27754;45.414;11.084;2024-03-17T02:41:21;12.00;89.60
42097;DHT22;27754;45.414;11.084;2024-03-17T02:43:47;12.00;89.60
42097;DHT22;27754;45.414;11.084;2024-03-17T02:46:15;11.90;89.80
42097;DHT22;27754;45.414;11.084;2024-03-17T02:48:42;11.90;90.00
42097;DHT22;27754;45.414;11.084;2024-03-17T02:51:20;11.80;89.90
42097;DHT22;27754;45.414;11.084;2024-03-17T02:53:48;11.80;89.80
42097;DHT22;27754;45.414;11.084;2024-03-17T02:56:16;11.80;89.90
42097;DHT22;27754;45.414;11.084;2024-03-17T02:58:43;11.80;90.10
42097;DHT22;27754;45.414;11.084;2024-03-17T03:01:09;11.90;89.70
42097;DHT22;27754;45.414;11.084;2024-03-17T03:03:36;11.70;89.20
42097;DHT22;27754;45.414;11.084;2024-03-17T03:06:02;11.80;89.60
42097;DHT22;27754;45.414;11.084;2024-03-17T03:08:30;11.80;89.40
42097;DHT22;27754;45.414;11.084;2024-03-17T03:10:56;11.70;89.40
42097;DHT22;27754;45.414;11.084;2024-03-17T03:13:22;11.70;89.30
42097;DHT22;27754;45.414;11.084;2024-03-17T03:15:49;11.80;89.60
42097;DHT22;27754;45.414;11.084;2024-03-17T03:18:15;11.80;89.30
42097;DHT22;27754;45.414;11.084;2024-03-17T03:20:41;11.80;89.10
42097;DHT22;27754;45.414;11.084;2024-03-17T03:23:07;11.80;88.80
42097;DHT22;27754;45.414;11.084;2024-03-17T03:25:33;11.80;88.80
42097;DHT22;27754;45.414;11.084;2024-03-17T03:28:00;11.80;88.90
42097;DHT22;27754;45.414;11.084;2024-03-17T03:30:27;11.80;88.90
42097;DHT22;27754;45.414;11.084;2024-03-17T03:32:55;11.80;88.90
42097;DHT22;27754;45.414;11.084;2024-03-17T03:35:21;11.80;89.00
42097;DHT22;27754;45.414;11.084;2024-03-17T03:37:47;11.70;89.40
42097;DHT22;27754;45.414;11.084;2024-03-17T03:40:12;11.60;89.70
42097;DHT22;27754;45.414;11.084;2024-03-17T03:42:45;11.50;90.20
42097;DHT22;27754;45.414;11.084;2024-03-17T03:45:11;11.50;90.50
42097;DHT22;27754;45.414;11.084;2024-03-17T03:47:41;11.50;90.50
42097;DHT22;27754;45.414;11.084;2024-03-17T03:50:11;11.40;90.60
42097;DHT22;27754;45.414;11.084;2024-03-17T03:52:38;11.40;90.60
42097;DHT22;27754;45.414;11.084;2024-03-17T03:55:07;11.40;90.80
42097;DHT22;27754;45.414;11.084;2024-03-17T03:57:39;11.40;90.70
42097;DHT22;27754;45.414;11.084;2024-03-17T04:00:05;11.30;90.80
42097;DHT22;27754;45.414;11.084;2024-03-17T04:02:42;11.30;90.90
42097;DHT22;27754;45.414;11.084;2024-03-17T04:05:09;11.20;90.80
42097;DHT22;27754;45.414;11.084;2024-03-17T04:07:35;11.20;91.00
42097;DHT22;27754;45.414;11.084;2024-03-17T04:10:02;11.20;91.10
42097;DHT22;27754;45.414;11.084;2024-03-17T04:12:29;11.10;90.80
42097;DHT22;27754;45.414;11.084;2024-03-17T04:14:57;11.00;90.80
42097;DHT22;27754;45.414;11.084;2024-03-17T04:17:23;11.10;91.00
42097;DHT22;27754;45.414;11.084;2024-03-17T04:19:50;11.00;91.20
42097;DHT22;27754;45.414;11.084;2024-03-17T04:22:16;11.00;91.30
42097;DHT22;27754;45.414;11.084;2024-03-17T04:24:43;11.00;91.20
42097;DHT22;27754;45.414;11.084;2024-03-17T04:27:10;11.00;91.10
42097;DHT22;27754;45.414;11.084;2024-03-17T04:29:36;10.90;91.00
42097;DHT22;27754;45.414;11.084;2024-03-17T04:32:02;11.00;91.00
42097;DHT22;27754;45.414;11.084;2024-03-17T04:34:31;10.90;90.70
42097;DHT22;27754;45.414;11.084;2024-03-17T04:36:57;10.90;90.60
42097;DHT22;27754;45.414;11.084;2024-03-17T04:39:24;10.90;90.80
42097;DHT22;27754;45.414;11.084;2024-03-17T04:41:50;10.90;90.60
42097;DHT22;27754;45.414;11.084;2024-03-17T04:44:17;10.90;90.70
42097;DHT22;27754;45.414;11.084;2024-03-17T04:46:43;10.90;90.40
42097;DHT22;27754;45.414;11.084;2024-03-17T04:49:09;10.60;89.30
42097;DHT22;27754;45.414;11.084;2024-03-17T04:51:36;10.60;90.50
42097;DHT22;27754;45.414;11.084;2024-03-17T04:54:02;10.60;90.70
42097;DHT22;27754;45.414;11.084;2024-03-17T04:56:29;10.60;91.10
42097;DHT22;27754;45.414;11.084;2024-03-17T04:58:55;10.60;91.40
42097;DHT22;27754;45.414;11.084;2024-03-17T05:01:21;10.60;91.70
42097;DHT22;27754;45.414;11.084;2024-03-17T05:03:47;10.60;91.80
42097;DHT22;27754;45.414;11.084;2024-03-17T05:06:16;10.70;91.80
42097;DHT22;27754;45.414;11.084;2024-03-17T05:08:42;10.70;91.70
42097;DHT22;27754;45.414;11.084;2024-03-17T05:11:09;10.70;91.80
42097;DHT22;27754;45.414;11.084;2024-03-17T05:13:36;10.80;91.70
42097;DHT22;27754;45.414;11.084;2024-03-17T05:16:05;10.80;91.70
42097;DHT22;27754;45.414;11.084;2024-03-17T05:18:31;10.70;91.40
42097;DHT22;27754;45.414;11.084;2024-03-17T05:21:05;10.80;91.40
42097;DHT22;27754;45.414;11.084;2024-03-17T05:23:34;10.80;91.50
42097;DHT22;27754;45.414;11.084;2024-03-17T05:26:00;10.80;91.60
42097;DHT22;27754;45.414;11.084;2024-03-17T05:28:28;10.80;91.30
42097;DHT22;27754;45.414;11.084;2024-03-17T05:30:54;10.80;91.50
42097;DHT22;27754;45.414;11.084;2024-03-17T05:33:21;10.80;91.50
42097;DHT22;27754;45.414;11.084;2024-03-17T05:35:55;10.80;91.70
42097;DHT22;27754;45.414;11.084;2024-03-17T05:38:22;10.80;91.60
42097;DHT22;27754;45.414;11.084;2024-03-17T05:43:24;10.80;92.30
42097;DHT22;27754;45.414;11.084;2024-03-17T05:45:51;10.80;92.30
42097;DHT22;27754;45.414;11.084;2024-03-17T05:48:17;10.80;91.90
42097;DHT22;27754;45.414;11.084;2024-03-17T05:50:43;10.90;92.00
42097;DHT22;27754;45.414;11.084;2024-03-17T05:53:09;11.00;91.80
42097;DHT22;27754;45.414;11.084;2024-03-17T05:55:36;11.10;91.50
42097;DHT22;27754;45.414;11.084;2024-03-17T05:58:03;11.20;91.20
42097;DHT22;27754;45.414;11.084;2024-03-17T06:00:30;11.30;91.00
42097;DHT22;27754;45.414;11.084;2024-03-17T06:02:57;11.30;90.80
42097;DHT22;27754;45.414;11.084;2024-03-17T06:05:23;11.40;90.50
42097;DHT22;27754;45.414;11.084;2024-03-17T06:07:49;11.40;90.50
42097;DHT22;27754;45.414;11.084;2024-03-17T06:10:15;11.40;90.40
42097;DHT22;27754;45.414;11.084;2024-03-17T06:12:41;11.50;90.50
42097;DHT22;27754;45.414;11.084;2024-03-17T06:15:07;11.70;90.30
42097;DHT22;27754;45.414;11.084;2024-03-17T06:17:33;11.80;90.10
42097;DHT22;27754;45.414;11.084;2024-03-17T06:20:00;11.90;89.50
42097;DHT22;27754;45.414;11.084;2024-03-17T06:22:28;12.00;89.70
42097;DHT22;27754;45.414;11.084;2024-03-17T06:24:54;12.10;89.70
42097;DHT22;27754;45.414;11.084;2024-03-17T06:27:20;12.10;89.30
42097;DHT22;27754;45.414;11.084;2024-03-17T06:29:46;12.10;89.00
42097;DHT22;27754;45.414;11.084;2024-03-17T06:32:12;12.10;89.00
42097;DHT22;27754;45.414;11.084;2024-03-17T06:34:38;12.10;88.60
42097;DHT22;27754;45.414;11.084;2024-03-17T06:37:05;12.20;88.70
42097;DHT22;27754;45.414;11.084;2024-03-17T06:39:30;12.30;88.60
42097;DHT22;27754;45.414;11.084;2024-03-17T06:41:56;12.40;88.60
42097;DHT22;27754;45.414;11.084;2024-03-17T06:44:22;12.60;88.30
42097;DHT22;27754;45.414;11.084;2024-03-17T06:46:53;12.90;87.90
42097;DHT22;27754;45.414;11.084;2024-03-17T06:49:18;13.00;87.60
42097;DHT22;27754;45.414;11.084;2024-03-17T06:51:44;13.20;87.20
42097;DHT22;27754;45.414;11.084;2024-03-17T06:54:10;13.40;85.90
42097;DHT22;27754;45.414;11.084;2024-03-17T06:56:36;13.40;85.70
42097;DHT22;27754;45.414;11.084;2024-03-17T06:59:03;13.70;85.00
42097;DHT22;27754;45.414;11.084;2024-03-17T07:01:29;13.90;84.20
42097;DHT22;27754;45.414;11.084;2024-03-17T07:03:55;13.90;83.90
42097;DHT22;27754;45.414;11.084;2024-03-17T07:06:21;14.10;84.40
42097;DHT22;27754;45.414;11.084;2024-03-17T07:08:47;14.20;83.70
42097;DHT22;27754;45.414;11.084;2024-03-17T07:11:13;14.20;83.30
42097;DHT22;27754;45.414;11.084;2024-03-17T07:13:38;14.30;83.00
42097;DHT22;27754;45.414;11.084;2024-03-17T07:16:06;14.30;82.60
42097;DHT22;27754;45.414;11.084;2024-03-17T07:18:32;14.30;82.60
42097;DHT22;27754;45.414;11.084;2024-03-17T07:21:03;14.30;82.40
42097;DHT22;27754;45.414;11.084;2024-03-17T07:23:35;14.30;83.00
42097;DHT22;27754;45.414;11.084;2024-03-17T07:26:02;14.30;82.80
42097;DHT22;27754;45.414;11.084;2024-03-17T07:28:31;14.40;82.90
42097;DHT22;27754;45.414;11.084;2024-03-17T07:30:59;14.50;82.80
42097;DHT22;27754;45.414;11.084;2024-03-17T07:33:26;14.50;82.10
42097;DHT22;27754;45.414;11.084;2024-03-17T07:35:54;14.40;82.50
42097;DHT22;27754;45.414;11.084;2024-03-17T07:38:21;14.40;82.70
42097;DHT22;27754;45.414;11.084;2024-03-17T07:43:23;14.60;81.60
42097;DHT22;27754;45.414;11.084;2024-03-17T07:46:02;14.80;81.80
42097;DHT22;27754;45.414;11.084;2024-03-17T07:48:34;14.90;81.10
42097;DHT22;27754;45.414;11.084;2024-03-17T07:51:05;15.10;81.10
42097;DHT22;27754;45.414;11.084;2024-03-17T07:53:39;15.10;80.40
42097;DHT22;27754;45.414;11.084;2024-03-17T07:56:06;15.30;80.90
42097;DHT22;27754;45.414;11.084;2024-03-17T07:58:36;15.60;80.20
42097;DHT22;27754;45.414;11.084;2024-03-17T08:01:14;15.50;79.70
42097;DHT22;27754;45.414;11.084;2024-03-17T08:03:47;15.40;80.70
42097;DHT22;27754;45.414;11.084;2024-03-17T08:06:19;15.40;81.30
42097;DHT22;27754;45.414;11.084;2024-03-17T08:08:46;15.60;81.30
42097;DHT22;27754;45.414;11.084;2024-03-17T08:11:12;15.50;80.20
42097;DHT22;27754;45.414;11.084;2024-03-17T08:13:39;15.60;80.30
42097;DHT22;27754;45.414;11.084;2024-03-17T08:16:06;15.60;80.80
42097;DHT22;27754;45.414;11.084;2024-03-17T08:18:34;15.60;80.40
42097;DHT22;27754;45.414;11.084;2024-03-17T08:21:01;15.60;80.50
42097;DHT22;27754;45.414;11.084;2024-03-17T08:23:27;15.80;79.70
42097;DHT22;27754;45.414;11.084;2024-03-17T08:25:57;15.90;79.80
42097;DHT22;27754;45.414;11.084;2024-03-17T08:28:24;16.10;79.60
42097;DHT22;27754;45.414;11.084;2024-03-17T08:30:55;16.00;78.70
42097;DHT22;27754;45.414;11.084;2024-03-17T08:33:21;16.10;79.10
42097;DHT22;27754;45.414;11.084;2024-03-17T08:35:53;16.10;78.40
42097;DHT22;27754;45.414;11.084;2024-03-17T08:38:20;16.30;77.80
42097;DHT22;27754;45.414;11.084;2024-03-17T08:40:47;16.30;77.90
42097;DHT22;27754;45.414;11.084;2024-03-17T08:43:13;16.40;77.70
42097;DHT22;27754;45.414;11.084;2024-03-17T08:45:39;16.50;77.50
42097;DHT22;27754;45.414;11.084;2024-03-17T08:48:05;16.70;76.60
42097;DHT22;27754;45.414;11.084;2024-03-17T08:50:31;16.80;77.70
42097;DHT22;27754;45.414;11.084;2024-03-17T08:52:59;16.80;77.20
42097;DHT22;27754;45.414;11.084;2024-03-17T08:55:25;16.80;77.90
42097;DHT22;27754;45.414;11.084;2024-03-17T08:57:51;17.10;77.00
42097;DHT22;27754;45.414;11.084;2024-03-17T09:00:17;17.20;76.00
42097;DHT22;27754;45.414;11.084;2024-03-17T09:02:43;16.80;77.80
42097;DHT22;27754;45.414;11.084;2024-03-17T09:05:09;16.80;77.40
42097;DHT22;27754;45.414;11.084;2024-03-17T09:07:35;16.70;78.00
42097;DHT22;27754;45.414;11.084;2024-03-17T09:10:02;16.80;77.50
42097;DHT22;27754;45.414;11.084;2024-03-17T09:12:28;16.80;77.50
42097;DHT22;27754;45.414;11.084;2024-03-17T09:14:54;16.90;77.60
42097;DHT22;27754;45.414;11.084;2024-03-17T09:17:20;16.80;77.60
42097;DHT22;27754;45.414;11.084;2024-03-17T09:19:46;17.00;77.60
42097;DHT22;27754;45.414;11.084;2024-03-17T09:22:13;17.20;76.70
42097;DHT22;27754;45.414;11.084;2024-03-17T09:24:39;17.20;76.70
42097;DHT22;27754;45.414;11.084;2024-03-17T09:27:06;17.20;76.70
42097;DHT22;27754;45.414;11.084;2024-03-17T09:29:32;17.40;76.80
42097;DHT22;27754;45.414;11.084;2024-03-17T09:31:59;17.40;76.30
42097;DHT22;27754;45.414;11.084;2024-03-17T09:34:25;17.30;76.30
42097;DHT22;27754;45.414;11.084;2024-03-17T09:36:51;17.50;75.40
42097;DHT22;27754;45.414;11.084;2024-03-17T09:39:17;17.50;75.60
42097;DHT22;27754;45.414;11.084;2024-03-17T09:41:46;17.60;73.90
42097;DHT22;27754;45.414;11.084;2024-03-17T09:44:12;17.30;74.30
42097;DHT22;27754;45.414;11.084;2024-03-17T09:46:41;17.30;75.20
42097;DHT22;27754;45.414;11.084;2024-03-17T09:49:16;17.20;75.20
42097;DHT22;27754;45.414;11.084;2024-03-17T09:51:43;17.10;75.00
42097;DHT22;27754;45.414;11.084;2024-03-17T09:54:19;17.30;74.30
42097;DHT22;27754;45.414;11.084;2024-03-17T09:56:45;17.30;75.60
42097;DHT22;27754;45.414;11.084;2024-03-17T09:59:12;17.40;75.30
42097;DHT22;27754;45.414;11.084;2024-03-17T10:01:38;17.70;74.60
42097;DHT22;27754;45.414;11.084;2024-03-17T10:04:04;17.70;75.10
42097;DHT22;27754;45.414;11.084;2024-03-17T10:06:31;17.70;75.20
42097;DHT22;27754;45.414;11.084;2024-03-17T10:08:58;17.70;73.60
42097;DHT22;27754;45.414;11.084;2024-03-17T10:11:32;17.70;74.60
42097;DHT22;27754;45.414;11.084;2024-03-17T10:14:06;18.00;73.50
42097;DHT22;27754;45.414;11.084;2024-03-17T10:16:34;17.60;74.10
42097;DHT22;27754;45.414;11.084;2024-03-17T10:19:14;17.60;75.60
42097;DHT22;27754;45.414;11.084;2024-03-17T10:21:45;17.80;74.70
42097;DHT22;27754;45.414;11.084;2024-03-17T10:26:47;17.70;75.20
42097;DHT22;27754;45.414;11.084;2024-03-17T10:29:33;17.90;74.90
42097;DHT22;27754;45.414;11.084;2024-03-17T10:32:21;18.20;73.10
42097;DHT22;27754;45.414;11.084;2024-03-17T10:34:50;18.20;73.10
42097;DHT22;27754;45.414;11.084;2024-03-17T10:37:18;18.40;72.40
42097;DHT22;27754;45.414;11.084;2024-03-17T10:39:53;18.40;72.80
42097;DHT22;27754;45.414;11.084;2024-03-17T10:42:28;18.30;72.70
42097;DHT22;27754;45.414;11.084;2024-03-17T10:44:54;18.30;73.50
42097;DHT22;27754;45.414;11.084;2024-03-17T10:47:23;18.20;73.90
42097;DHT22;27754;45.414;11.084;2024-03-17T10:49:54;17.90;74.80
42097;DHT22;27754;45.414;11.084;2024-03-17T10:52:22;18.20;74.30
42097;DHT22;27754;45.414;11.084;2024-03-17T10:54:50;18.30;72.80
42097;DHT22;27754;45.414;11.084;2024-03-17T11:00:04;18.60;72.70
42097;DHT22;27754;45.414;11.084;2024-03-17T11:02:31;18.80;70.90
42097;DHT22;27754;45.414;11.084;2024-03-17T11:05:01;18.80;69.50
42097;DHT22;27754;45.414;11.084;2024-03-17T11:07:28;18.70;69.20
42097;DHT22;27754;45.414;11.084;2024-03-17T11:09:57;18.50;71.10
42097;DHT22;27754;45.414;11.084;2024-03-17T11:17:49;19.00;70.90
42097;DHT22;27754;45.414;11.084;2024-03-17T11:20:26;19.00;68.80
42097;DHT22;27754;45.414;11.084;2024-03-17T11:22:55;18.80;69.80
42097;DHT22;27754;45.414;11.084;2024-03-17T11:28:00;19.00;70.20
42097;DHT22;27754;45.414;11.084;2024-03-17T11:30:49;19.00;69.50
42097;DHT22;27754;45.414;11.084;2024-03-17T11:41:41;19.30;67.20
42097;DHT22;27754;45.414;11.084;2024-03-17T11:46:59;19.40;65.80
42097;DHT22;27754;45.414;11.084;2024-03-17T11:49:30;19.50;66.70
42097;DHT22;27754;45.414;11.084;2024-03-17T11:51:58;19.60;64.90
42097;DHT22;27754;45.414;11.084;2024-03-17T11:54:26;19.50;65.60
42097;DHT22;27754;45.414;11.084;2024-03-17T11:57:03;19.30;65.80
42097;DHT22;27754;45.414;11.084;2024-03-17T11:59:30;19.20;66.30
42097;DHT22;27754;45.414;11.084;2024-03-17T12:01:56;19.30;66.10
42097;DHT22;27754;45.414;11.084;2024-03-17T12:04:23;19.60;66.80
42097;DHT22;27754;45.414;11.084;2024-03-17T12:06:54;19.60;66.40
42097;DHT22;27754;45.414;11.084;2024-03-17T12:09:25;19.50;66.50
42097;DHT22;27754;45.414;11.084;2024-03-17T12:12:00;19.50;66.20
42097;DHT22;27754;45.414;11.084;2024-03-17T12:14:26;19.70;66.90
42097;DHT22;27754;45.414;11.084;2024-03-17T12:16:54;19.70;67.30
42097;DHT22;27754;45.414;11.084;2024-03-17T12:19:21;19.70;67.60
42097;DHT22;27754;45.414;11.084;2024-03-17T12:24:30;19.90;66.00
42097;DHT22;27754;45.414;11.084;2024-03-17T12:26:58;19.90;65.60
42097;DHT22;27754;45.414;11.084;2024-03-17T12:29:35;19.90;66.00
42097;DHT22;27754;45.414;11.084;2024-03-17T12:32:04;19.90;65.20
42097;DHT22;27754;45.414;11.084;2024-03-17T12:34:34;19.80;66.20
42097;DHT22;27754;45.414;11.084;2024-03-17T12:37:01;19.90;66.30
42097;DHT22;27754;45.414;11.084;2024-03-17T12:39:29;19.90;65.30
42097;DHT22;27754;45.414;11.084;2024-03-17T12:42:09;19.90;65.60
42097;DHT22;27754;45.414;11.084;2024-03-17T12:47:03;19.70;65.30
42097;DHT22;27754;45.414;11.084;2024-03-17T12:49:34;19.90;65.80
42097;DHT22;27754;45.414;11.084;2024-03-17T12:52:01;19.90;65.30
42097;DHT22;27754;45.414;11.084;2024-03-17T12:54:27;19.90;64.40
42097;DHT22;27754;45.414;11.084;2024-03-17T12:57:07;20.00;64.90
42097;DHT22;27754;45.414;11.084;2024-03-17T12:59:52;20.00;64.80
42097;DHT22;27754;45.414;11.084;2024-03-17T13:02:42;20.20;63.20
42097;DHT22;27754;45.414;11.084;2024-03-17T13:05:19;20.40;63.60
42097;DHT22;27754;45.414;11.084;2024-03-17T13:07:47;20.60;63.50
42097;DHT22;27754;45.414;11.084;2024-03-17T13:10:14;20.60;62.60
42097;DHT22;27754;45.414;11.084;2024-03-17T13:12:40;20.60;62.90
42097;DHT22;27754;45.414;11.084;2024-03-17T13:15:13;20.70;62.40
42097;DHT22;27754;45.414;11.084;2024-03-17T13:17:41;20.60;63.30
42097;DHT22;27754;45.414;11.084;2024-03-17T13:20:12;20.50;63.70
42097;DHT22;27754;45.414;11.084;2024-03-17T13:22:39;20.50;64.70
42097;DHT22;27754;45.414;11.084;2024-03-17T13:25:08;20.80;63.10
42097;DHT22;27754;45.414;11.084;2024-03-17T13:27:35;20.70;64.10
42097;DHT22;27754;45.414;11.084;2024-03-17T13:30:02;20.70;64.70
42097;DHT22;27754;45.414;11.084;2024-03-17T13:32:29;20.70;64.70
42097;DHT22;27754;45.414;11.084;2024-03-17T13:34:55;20.60;63.90
42097;DHT22;27754;45.414;11.084;2024-03-17T13:37:20;20.60;64.80
42097;DHT22;27754;45.414;11.084;2024-03-17T13:39:47;20.60;64.50
42097;DHT22;27754;45.414;11.084;2024-03-17T13:42:14;20.60;64.20
42097;DHT22;27754;45.414;11.084;2024-03-17T13:44:40;20.30;63.60
42097;DHT22;27754;45.414;11.084;2024-03-17T13:47:07;20.20;64.80
42097;DHT22;27754;45.414;11.084;2024-03-17T13:49:33;20.10;65.40
42097;DHT22;27754;45.414;11.084;2024-03-17T13:51:59;20.10;64.00
42097;DHT22;27754;45.414;11.084;2024-03-17T13:54:25;20.00;65.00
42097;DHT22;27754;45.414;11.084;2024-03-17T13:56:51;20.20;65.60
42097;DHT22;27754;45.414;11.084;2024-03-17T13:59:17;20.20;65.50
42097;DHT22;27754;45.414;11.084;2024-03-17T14:01:43;20.20;66.20
42097;DHT22;27754;45.414;11.084;2024-03-17T14:04:18;20.00;66.20
42097;DHT22;27754;45.414;11.084;2024-03-17T14:06:46;19.90;65.90
42097;DHT22;27754;45.414;11.084;2024-03-17T14:09:15;19.90;65.90
42097;DHT22;27754;45.414;11.084;2024-03-17T14:11:44;19.90;66.30
42097;DHT22;27754;45.414;11.084;2024-03-17T14:14:10;19.90;66.50
42097;DHT22;27754;45.414;11.084;2024-03-17T14:16:36;19.90;66.40
42097;DHT22;27754;45.414;11.084;2024-03-17T14:19:03;19.80;67.00
42097;DHT22;27754;45.414;11.084;2024-03-17T14:21:30;19.80;66.70
42097;DHT22;27754;45.414;11.084;2024-03-17T14:23:57;19.80;66.60
42097;DHT22;27754;45.414;11.084;2024-03-17T14:26:24;19.70;66.50
42097;DHT22;27754;45.414;11.084;2024-03-17T14:28:51;19.70;66.80
42097;DHT22;27754;45.414;11.084;2024-03-17T14:31:17;19.70;66.40
42097;DHT22;27754;45.414;11.084;2024-03-17T14:33:44;19.60;67.10
42097;DHT22;27754;45.414;11.084;2024-03-17T14:36:11;19.50;67.40
42097;DHT22;27754;45.414;11.084;2024-03-17T14:38:37;19.60;66.90
42097;DHT22;27754;45.414;11.084;2024-03-17T14:41:03;19.50;67.00
42097;DHT22;27754;45.414;11.084;2024-03-17T14:43:30;19.40;67.60
42097;DHT22;27754;45.414;11.084;2024-03-17T14:45:56;19.40;67.80
42097;DHT22;27754;45.414;11.084;2024-03-17T14:48:22;19.30;68.00
42097;DHT22;27754;45.414;11.084;2024-03-17T14:50:49;19.20;68.50
42097;DHT22;27754;45.414;11.084;2024-03-17T14:53:15;19.20;68.70
42097;DHT22;27754;45.414;11.084;2024-03-17T14:55:43;19.10;69.20
42097;DHT22;27754;45.414;11.084;2024-03-17T14:58:09;19.10;68.70
42097;DHT22;27754;45.414;11.084;2024-03-17T15:00:37;19.00;69.00
42097;DHT22;27754;45.414;11.084;2024-03-17T15:03:04;19.00;68.90
42097;DHT22;27754;45.414;11.084;2024-03-17T15:05:33;19.00;69.80
42097;DHT22;27754;45.414;11.084;2024-03-17T15:07:59;18.90;70.00
42097;DHT22;27754;45.414;11.084;2024-03-17T15:10:25;18.90;70.00
42097;DHT22;27754;45.414;11.084;2024-03-17T15:12:51;18.90;69.80
42097;DHT22;27754;45.414;11.084;2024-03-17T15:15:17;18.90;69.90
42097;DHT22;27754;45.414;11.084;2024-03-17T15:17:43;18.90;69.70
42097;DHT22;27754;45.414;11.084;2024-03-17T15:20:12;18.90;69.50
42097;DHT22;27754;45.414;11.084;2024-03-17T15:22:48;18.90;69.30
42097;DHT22;27754;45.414;11.084;2024-03-17T15:25:15;18.90;69.80
42097;DHT22;27754;45.414;11.084;2024-03-17T15:27:42;18.90;69.70
42097;DHT22;27754;45.414;11.084;2024-03-17T15:30:18;19.00;69.40
42097;DHT22;27754;45.414;11.084;2024-03-17T15:32:51;19.00;69.00
42097;DHT22;27754;45.414;11.084;2024-03-17T15:35:21;19.10;68.10
42097;DHT22;27754;45.414;11.084;2024-03-17T15:37:47;19.10;68.40
42097;DHT22;27754;45.414;11.084;2024-03-17T15:40:13;19.00;69.60
42097;DHT22;27754;45.414;11.084;2024-03-17T15:42:44;19.00;69.20
42097;DHT22;27754;45.414;11.084;2024-03-17T15:45:12;19.00;69.30
42097;DHT22;27754;45.414;11.084;2024-03-17T15:47:38;19.00;69.10
42097;DHT22;27754;45.414;11.084;2024-03-17T15:50:04;19.00;69.10
42097;DHT22;27754;45.414;11.084;2024-03-17T15:52:30;19.00;69.10
42097;DHT22;27754;45.414;11.084;2024-03-17T15:54:56;18.90;69.20